createdAt,value
2022-09-27T00:01:25.135Z,96278.09
2022-09-27T00:03:56.509Z,96289.25
2022-09-27T00:06:28.994Z,96280.59
2022-09-27T00:08:59.431Z,96283.22
2022-09-27T00:11:33.294Z,96282.69
2022-09-27T00:14:02.690Z,96288.25
2022-09-27T00:16:35.429Z,96287.44
2022-09-27T00:19:07.784Z,96293.69
2022-09-27T00:21:37.025Z,96293.69
2022-09-27T00:24:06.600Z,96285.63
2022-09-27T00:26:37.017Z,96291.66
2022-09-27T00:29:05.707Z,96284.81
2022-09-27T00:31:34.715Z,96293.69
2022-09-27T00:34:05.245Z,96288.72
2022-09-27T00:36:35.904Z,96284.81
2022-09-27T00:39:05.386Z,96292.09
2022-09-27T00:41:37.506Z,96294.72
2022-09-27T00:44:45.890Z,96290.53
2022-09-27T00:47:25.151Z,96282.91
2022-09-27T00:49:59.628Z,96284.16
2022-09-27T00:52:35.932Z,96282.50
2022-09-27T00:55:11.800Z,96284.06
2022-09-27T00:57:46.381Z,96283.75
2022-09-27T01:00:16.633Z,96282.97
2022-09-27T01:02:51.901Z,96286.13
2022-09-27T01:05:26.961Z,96284.00
2022-09-27T01:07:56.859Z,96287.16
2022-09-27T01:10:29.830Z,96280.78
2022-09-27T01:13:13.373Z,96284.34
2022-09-27T01:15:58.494Z,96295.63
2022-09-27T01:18:40.383Z,96294.34
2022-09-27T01:21:59.794Z,96295.94
2022-09-27T01:25:04.633Z,96307.75
2022-09-27T01:28:12.706Z,96307.88
2022-09-27T01:30:51.724Z,96311.78
2022-09-27T01:33:46.691Z,96300.97
2022-09-27T01:36:30.814Z,96305.75
2022-09-27T01:39:15.462Z,96312.47
2022-09-27T01:41:57.719Z,96301.91
2022-09-27T01:44:35.316Z,96309.19
2022-09-27T01:47:13.867Z,96309.75
2022-09-27T01:49:53.976Z,96313.94
2022-09-27T01:52:32.397Z,96313.41
2022-09-27T01:55:07.661Z,96321.31
2022-09-27T01:57:42.497Z,96318.16
2022-09-27T02:00:14.621Z,96316.00
2022-09-27T02:02:51.960Z,96312.25
2022-09-27T02:05:29.408Z,96325.44
2022-09-27T02:08:04.598Z,96325.44
2022-09-27T02:10:43.061Z,96326.03
2022-09-27T02:13:23.195Z,96332.03
2022-09-27T02:15:59.587Z,96331.84
2022-09-27T02:18:39.444Z,96330.81
2022-09-27T02:21:16.813Z,96330.00
2022-09-27T02:23:52.766Z,96340.47
2022-09-27T02:26:28.807Z,96345.72
2022-09-27T02:29:06.850Z,96344.91
2022-09-27T02:31:36.003Z,96349.78
2022-09-27T02:34:13.104Z,96348.19
2022-09-27T02:36:43.505Z,96350.00
2022-09-27T02:39:12.859Z,96357.31
2022-09-27T02:41:41.903Z,96359.13
2022-09-27T02:44:15.515Z,96362.28
2022-09-27T02:47:23.167Z,96365.94
2022-09-27T02:50:16.619Z,96372.75
2022-09-27T02:53:01.443Z,96375.94
2022-09-27T02:55:45.840Z,96385.16
2022-09-27T02:58:34.896Z,96381.41
2022-09-27T03:01:13.437Z,96370.38
2022-09-27T03:03:53.500Z,96380.16
2022-09-27T03:06:25.705Z,96391.97
2022-09-27T03:08:55.358Z,96396.44
2022-09-27T03:11:25.212Z,96391.75
2022-09-27T03:14:08.453Z,96392.31
2022-09-27T03:16:38.299Z,96393.91
2022-09-27T03:19:07.528Z,96390.75
2022-09-27T03:21:37.768Z,96398.34
2022-09-27T03:24:07.789Z,96399.72
2022-09-27T03:26:36.954Z,96411.19
2022-09-27T03:29:05.556Z,96415.28
2022-09-27T03:31:34.190Z,96414.94
2022-09-27T03:34:02.794Z,96410.50
2022-09-27T03:36:32.840Z,96412.09
2022-09-27T03:39:03.363Z,96404.47
2022-09-27T03:41:32.286Z,96403.59
2022-09-27T03:44:00.863Z,96410.38
2022-09-27T03:46:32.733Z,96408.22
2022-09-27T03:49:07.428Z,96409.81
2022-09-27T03:51:36.063Z,96408.81
2022-09-27T03:54:08.278Z,96407.66
2022-09-27T03:56:37.294Z,96405.41
2022-09-27T03:59:06.041Z,96409.16
2022-09-27T04:01:36.200Z,96413.34
2022-09-27T04:04:10.917Z,96411.53
2022-09-27T04:06:40.461Z,96412.78
2022-09-27T04:09:11.421Z,96416.06
2022-09-27T04:11:40.229Z,96413.09
2022-09-27T04:14:08.963Z,96423.56
2022-09-27T04:16:37.594Z,96416.41
2022-09-27T04:19:06.811Z,96410.41
2022-09-27T04:21:35.886Z,96414.38
2022-09-27T04:24:05.757Z,96419.13
2022-09-27T04:26:36.025Z,96421.19
2022-09-27T04:29:05.317Z,96423.22
2022-09-27T04:31:34.594Z,96412.88
2022-09-27T04:34:03.876Z,96415.38
2022-09-27T04:36:32.612Z,96414.59
2022-09-27T04:39:05.434Z,96422.53
2022-09-27T04:41:36.559Z,96421.16
2022-09-27T04:44:06.578Z,96416.50
2022-09-27T04:46:35.337Z,96426.28
2022-09-27T04:49:05.155Z,96419.56
2022-09-27T04:51:34.165Z,96426.38
2022-09-27T04:54:03.123Z,96419.13
2022-09-27T04:56:31.825Z,96419.78
2022-09-27T04:59:02.620Z,96425.00
2022-09-27T05:01:33.925Z,96443.53
2022-09-27T05:04:02.925Z,96432.16
2022-09-27T05:06:32.331Z,96441.78
2022-09-27T05:09:02.032Z,96446.00
2022-09-27T05:11:31.372Z,96455.66
2022-09-27T05:14:02.659Z,96458.88
2022-09-27T05:16:34.003Z,96459.06
2022-09-27T05:19:03.789Z,96463.69
2022-09-27T05:21:33.387Z,96467.53
2022-09-27T05:24:02.354Z,96474.00
2022-09-27T05:26:31.744Z,96471.94
2022-09-27T05:29:02.774Z,96476.59
2022-09-27T05:31:32.125Z,96479.22
2022-09-27T05:34:00.777Z,96480.59
2022-09-27T05:36:29.422Z,96487.19
2022-09-27T05:38:59.182Z,96487.63
2022-09-27T05:41:27.862Z,96498.88
2022-09-27T05:43:56.955Z,96499.47
2022-09-27T05:46:27.201Z,96498.06
2022-09-27T05:48:56.603Z,96510.56
2022-09-27T05:51:26.480Z,96512.16
2022-09-27T05:53:55.399Z,96516.78
2022-09-27T05:56:24.912Z,96521.25
2022-09-27T05:58:53.688Z,96523.06
2022-09-27T06:01:22.494Z,96521.81
2022-09-27T06:03:53.641Z,96528.63
2022-09-27T06:06:23.667Z,96524.63
2022-09-27T06:08:52.430Z,96527.84
2022-09-27T06:11:21.193Z,96527.03
2022-09-27T06:13:49.817Z,96531.81
2022-09-27T06:16:18.804Z,96542.03
2022-09-27T06:18:47.714Z,96537.41
2022-09-27T06:21:17.673Z,96537.41
2022-09-27T06:23:47.984Z,96541.03
2022-09-27T06:26:21.028Z,96541.84
2022-09-27T06:28:50.415Z,96545.81
2022-09-27T06:31:19.441Z,96540.59
2022-09-27T06:33:48.318Z,96548.00
2022-09-27T06:36:19.132Z,96549.38
2022-09-27T06:38:48.316Z,96543.91
2022-09-27T06:41:17.416Z,96546.13
2022-09-27T06:43:46.109Z,96543.34
2022-09-27T06:46:15.080Z,96549.13
2022-09-27T06:48:43.793Z,96553.16
2022-09-27T06:51:12.912Z,96561.78
2022-09-27T06:53:42.962Z,96553.59
2022-09-27T06:56:12.350Z,96559.94
2022-09-27T06:58:58.927Z,96558.38
2022-09-27T07:01:30.492Z,96557.13
2022-09-27T07:03:59.454Z,96552.47
2022-09-27T07:06:28.185Z,96554.50
2022-09-27T07:08:58.672Z,96556.97
2022-09-27T07:11:27.307Z,96563.34
2022-09-27T07:13:56.682Z,96561.78
2022-09-27T07:16:26.052Z,96568.38
2022-09-27T07:18:54.668Z,96572.81
2022-09-27T07:21:23.322Z,96575.41
2022-09-27T07:23:51.922Z,96578.59
2022-09-27T07:26:22.838Z,96576.13
2022-09-27T07:28:53.350Z,96570.34
2022-09-27T07:31:22.660Z,96571.69
2022-09-27T07:33:52.806Z,96576.81
2022-09-27T07:36:22.561Z,96576.81
2022-09-27T07:38:54.333Z,96572.75
2022-09-27T07:41:24.409Z,96571.16
2022-09-27T07:43:54.125Z,96574.66
2022-09-27T07:46:23.411Z,96580.44
2022-09-27T07:48:53.428Z,96584.00
2022-09-27T07:51:22.899Z,96580.94
2022-09-27T07:53:51.637Z,96586.38
2022-09-27T07:56:20.271Z,96592.28
2022-09-27T07:58:50.442Z,96593.66
2022-09-27T08:01:19.196Z,96597.50
2022-09-27T08:03:47.955Z,96601.16
2022-09-27T08:06:18.799Z,96606.28
2022-09-27T08:08:47.908Z,96601.25
2022-09-27T08:11:19.345Z,96609.25
2022-09-27T08:13:52.711Z,96600.75
2022-09-27T08:16:22.339Z,96607.00
2022-09-27T08:18:50.944Z,96603.69
2022-09-27T08:21:19.603Z,96601.88
2022-09-27T08:23:49.089Z,96599.63
2022-09-27T08:26:18.224Z,96594.63
2022-09-27T08:28:51.033Z,96585.69
2022-09-27T08:31:19.829Z,96592.72
2022-09-27T08:33:52.615Z,96587.84
2022-09-27T08:36:21.555Z,96594.44
2022-09-27T08:38:51.200Z,96595.00
2022-09-27T08:41:36.331Z,96595.94
2022-09-27T08:44:18.713Z,96602.31
2022-09-27T08:47:02.547Z,96598.44
2022-09-27T08:49:40.294Z,96605.63
2022-09-27T08:52:19.755Z,96601.09
2022-09-27T08:54:50.317Z,96598.38
2022-09-27T08:57:19.172Z,96594.16
2022-09-27T09:00:01.208Z,96602.13
2022-09-27T09:02:30.046Z,96597.31
2022-09-27T09:05:09.547Z,96597.47
2022-09-27T09:08:02.843Z,96600.41
2022-09-27T09:11:07.674Z,96603.38
2022-09-27T09:13:59.179Z,96603.38
2022-09-27T09:16:46.197Z,96603.84
2022-09-27T09:19:41.717Z,96600.09
2022-09-27T09:22:30.879Z,96600.88
2022-09-27T09:25:29.821Z,96592.47
2022-09-27T09:28:21.875Z,96604.88
2022-09-27T09:31:06.817Z,96588.38
2022-09-27T09:33:45.281Z,96601.56
2022-09-27T09:36:28.055Z,96597.91
2022-09-27T09:39:03.786Z,96597.47
2022-09-27T09:41:40.472Z,96594.16
2022-09-27T09:44:23.268Z,96594.97
2022-09-27T09:46:58.052Z,96591.75
2022-09-27T09:49:35.313Z,96589.16
2022-09-27T09:52:13.966Z,96587.09
2022-09-27T09:54:48.745Z,96586.19
2022-09-27T09:57:22.949Z,96582.44
2022-09-27T10:00:00.344Z,96587.56
2022-09-27T10:02:35.033Z,96582.44
2022-09-27T10:05:08.262Z,96581.41
2022-09-27T10:07:41.621Z,96593.03
2022-09-27T10:10:18.260Z,96599.84
2022-09-27T10:12:47.987Z,96601.09
2022-09-27T10:15:20.938Z,96594.72
2022-09-27T10:17:54.691Z,96586.88
2022-09-27T10:20:34.781Z,96584.13
2022-09-27T10:23:13.630Z,96571.97
2022-09-27T10:25:54.996Z,96575.59
2022-09-27T10:28:38.429Z,96572.31
2022-09-27T10:31:10.659Z,96566.16
2022-09-27T10:33:55.010Z,96565.00
2022-09-27T10:36:29.908Z,96565.09
2022-09-27T10:39:01.661Z,96562.00
2022-09-27T10:41:35.651Z,96559.06
2022-09-27T10:44:25.686Z,96554.06
2022-09-27T10:46:57.971Z,96558.25
2022-09-27T10:49:32.397Z,96551.19
2022-09-27T10:52:06.307Z,96546.88
2022-09-27T10:54:38.473Z,96546.41
2022-09-27T10:57:19.868Z,96558.25
2022-09-27T10:59:56.135Z,96559.53
2022-09-27T11:02:30.708Z,96577.44
2022-09-27T11:05:15.077Z,96562.06
2022-09-27T11:07:54.267Z,96573.34
2022-09-27T11:10:29.879Z,96583.34
2022-09-27T11:13:15.120Z,96599.28
2022-09-27T11:16:20.919Z,96592.59
2022-09-27T11:19:08.375Z,96590.63
2022-09-27T11:21:53.940Z,96587.09
2022-09-27T11:24:48.386Z,96577.56
2022-09-27T11:27:38.455Z,96574.59
2022-09-27T11:30:15.559Z,96580.28
2022-09-27T11:33:20.286Z,96576.75
2022-09-27T11:36:06.929Z,96570.16
2022-09-27T11:38:54.836Z,96566.84
2022-09-27T11:41:42.294Z,96567.50
2022-09-27T11:44:44.290Z,96553.41
2022-09-27T11:47:27.910Z,96547.38
2022-09-27T11:50:44.863Z,96542.41
2022-09-27T11:53:36.767Z,96551.16
2022-09-27T11:56:19.391Z,96542.50
2022-09-27T11:59:16.003Z,96538.31
2022-09-27T12:01:55.175Z,96535.69
2022-09-27T12:04:51.246Z,96531.47
2022-09-27T12:07:32.069Z,96523.50
2022-09-27T12:10:14.239Z,96522.16
2022-09-27T12:12:47.731Z,96516.66
2022-09-27T12:15:21.870Z,96502.75
2022-09-27T12:17:57.241Z,96504.44
2022-09-27T12:20:31.703Z,96507.09
2022-09-27T12:23:05.534Z,96498.88
2022-09-27T12:25:40.725Z,96508.41
2022-09-27T12:28:24.609Z,96513.19
2022-09-27T12:31:27.913Z,96502.09
2022-09-27T12:34:17.538Z,96496.72
2022-09-27T12:36:58.023Z,96498.53
2022-09-27T12:39:35.755Z,96505.84
2022-09-27T12:42:18.443Z,96499.91
2022-09-27T12:44:50.845Z,96490.22
2022-09-27T12:47:55.196Z,96487.53
2022-09-27T12:50:37.767Z,96490.63
2022-09-27T12:53:15.838Z,96483.56
2022-09-27T12:56:25.778Z,96496.47
2022-09-27T12:59:42.586Z,96494.88
2022-09-27T13:03:14.814Z,96486.31
2022-09-27T13:06:34.424Z,96484.56
2022-09-27T13:09:47.475Z,96487.19
2022-09-27T13:12:20.744Z,96496.97
2022-09-27T13:15:01.442Z,96493.53
2022-09-27T13:17:57.464Z,96501.25
2022-09-27T13:20:52.971Z,96529.75
2022-09-27T13:24:00.768Z,96551.56
2022-09-27T13:26:52.199Z,96557.06
2022-09-27T13:29:34.375Z,96552.16
2022-09-27T13:32:19.378Z,96546.81
2022-09-27T13:34:53.712Z,96546.25
2022-09-27T13:37:48.584Z,96548.78
2022-09-27T13:40:32.897Z,96545.00
2022-09-27T13:43:47.751Z,96544.66
2022-09-27T13:46:25.462Z,96538.28
2022-09-27T13:49:01.803Z,96540.44
2022-09-27T13:51:43.514Z,96533.50
2022-09-27T13:54:51.980Z,96527.88
2022-09-27T13:57:56.635Z,96528.16
2022-09-27T14:00:28.606Z,96518.25
2022-09-27T14:03:13.373Z,96520.63
2022-09-27T14:05:50.242Z,96524.00
2022-09-27T14:08:30.672Z,96524.13
2022-09-27T14:11:01.848Z,96524.69
2022-09-27T14:13:33.589Z,96521.78
2022-09-27T14:16:06.997Z,96527.78
2022-09-27T14:18:37.774Z,96523.81
2022-09-27T14:21:22.511Z,96523.81
2022-09-27T14:23:52.980Z,96517.00
2022-09-27T14:26:26.407Z,96508.41
2022-09-27T14:28:55.063Z,96512.44
2022-09-27T14:31:26.573Z,96522.78
2022-09-27T14:34:08.979Z,96522.38
2022-09-27T14:37:12.201Z,96530.94
2022-09-27T14:39:43.413Z,96529.66
2022-09-27T14:42:22.769Z,96528.00
2022-09-27T14:44:52.632Z,96524.59
2022-09-27T14:47:24.906Z,96531.75
2022-09-27T14:49:57.899Z,96531.84
2022-09-27T14:52:31.486Z,96526.69
2022-09-27T14:55:05.839Z,96527.31
2022-09-27T14:57:37.227Z,96529.66
2022-09-27T15:00:20.935Z,96529.19
2022-09-27T15:02:55.573Z,96534.69
2022-09-27T15:05:27.408Z,96525.28
2022-09-27T15:07:58.303Z,96521.91
2022-09-27T15:10:32.469Z,96531.94
2022-09-27T15:13:04.784Z,96538.22
2022-09-27T15:15:36.588Z,96537.16
2022-09-27T15:18:33.050Z,96538.44
2022-09-27T15:21:08.564Z,96550.69
2022-09-27T15:23:40.446Z,96556.16
2022-09-27T15:26:18.024Z,96565.59
2022-09-27T15:28:50.233Z,96596.75
2022-09-27T15:31:19.268Z,96589.19
2022-09-27T15:33:57.166Z,96593.22
2022-09-27T15:37:00.189Z,96594.50
2022-09-27T15:39:33.546Z,96589.88
2022-09-27T15:42:11.193Z,96583.56
2022-09-27T15:44:47.365Z,96579.59
2022-09-27T15:47:50.036Z,96570.72
2022-09-27T15:50:39.039Z,96572.97
2022-09-27T15:53:09.349Z,96566.28
2022-09-27T15:55:43.813Z,96574.25
2022-09-27T15:58:20.513Z,96562.16
2022-09-27T16:00:58.804Z,96562.28
2022-09-27T16:03:28.347Z,96563.16
2022-09-27T16:05:58.609Z,96562.16
2022-09-27T16:08:29.023Z,96571.75
2022-09-27T16:11:00.576Z,96569.13
2022-09-27T16:13:33.152Z,96566.38
2022-09-27T16:16:03.575Z,96561.28
2022-09-27T16:18:32.866Z,96562.63
2022-09-27T16:21:03.549Z,96556.03
2022-09-27T16:23:32.178Z,96555.13
2022-09-27T16:26:01.168Z,96553.50
2022-09-27T16:28:31.065Z,96567.63
2022-09-27T16:31:05.414Z,96572.19
2022-09-27T16:33:35.834Z,96581.88
2022-09-27T16:36:15.157Z,96577.91
2022-09-27T16:38:44.401Z,96586.78
2022-09-27T16:41:12.921Z,96579.94
2022-09-27T16:43:42.912Z,96585.19
2022-09-27T16:46:13.221Z,96587.66
2022-09-27T16:48:42.445Z,96590.28
2022-09-27T16:51:34.150Z,96592.44
2022-09-27T16:54:03.059Z,96601.41
2022-09-27T16:56:33.081Z,96596.72
2022-09-27T16:59:04.984Z,96598.31
2022-09-27T17:01:34.112Z,96597.59
2022-09-27T17:04:03.718Z,96591.81
2022-09-27T17:06:33.621Z,96598.06
2022-09-27T17:09:05.837Z,96596.78
2022-09-27T17:11:35.110Z,96594.63
2022-09-27T17:14:04.991Z,96587.53
2022-09-27T17:17:20.015Z,96589.09
2022-09-27T17:19:48.646Z,96584.41
2022-09-27T17:22:17.132Z,96568.94
2022-09-27T17:24:45.624Z,96577.47
2022-09-27T17:27:14.029Z,96590.38
2022-09-27T17:29:43.973Z,96598.00
2022-09-27T17:32:14.820Z,96590.16
2022-09-27T17:34:45.030Z,96588.06
2022-09-27T17:37:13.534Z,96585.72
2022-09-27T17:39:42.086Z,96590.81
2022-09-27T17:42:11.778Z,96585.00
2022-09-27T17:44:40.824Z,96580.34
2022-09-27T17:47:28.438Z,96585.66
2022-09-27T17:50:14.728Z,96584.72
2022-09-27T17:52:43.520Z,96587.19
2022-09-27T17:55:12.154Z,96586.03
2022-09-27T17:57:40.650Z,96581.25
2022-09-27T18:00:11.228Z,96597.34
2022-09-27T18:02:42.876Z,96593.13
2022-09-27T18:05:11.694Z,96599.50
2022-09-27T18:07:40.824Z,96586.81
2022-09-27T18:10:09.686Z,96579.22
2022-09-27T18:12:39.241Z,96591.69
2022-09-27T18:15:09.343Z,96587.47
2022-09-27T18:17:38.146Z,96594.28
2022-09-27T18:20:09.466Z,96596.19
2022-09-27T18:22:38.978Z,96591.81
2022-09-27T18:25:08.747Z,96591.47
2022-09-27T18:27:38.639Z,96590.81
2022-09-27T18:30:09.494Z,96584.56
2022-09-27T18:32:38.103Z,96585.88
2022-09-27T18:35:09.063Z,96584.28
2022-09-27T18:37:37.802Z,96579.50
2022-09-27T18:40:07.474Z,96577.16
2022-09-27T18:42:36.649Z,96568.03
2022-09-27T18:45:06.199Z,96566.78
2022-09-27T18:47:34.976Z,96575.22
2022-09-27T18:50:03.880Z,96575.41
2022-09-27T18:52:33.810Z,96571.06
2022-09-27T18:55:03.059Z,96573.06
2022-09-27T18:57:33.072Z,96571.94
2022-09-27T19:00:02.787Z,96574.53
2022-09-27T19:02:32.627Z,96566.50
2022-09-27T19:05:01.364Z,96562.94
2022-09-27T19:07:33.082Z,96569.03
2022-09-27T19:10:05.138Z,96572.25
2022-09-27T19:12:33.900Z,96570.72
2022-09-27T19:15:02.541Z,96568.53
2022-09-27T19:17:32.075Z,96566.19
2022-09-27T19:20:00.690Z,96571.41
2022-09-27T19:22:31.373Z,96574.81
2022-09-27T19:25:00.056Z,96583.69
2022-09-27T19:27:32.392Z,96572.84
2022-09-27T19:30:01.042Z,96576.84
2022-09-27T19:32:29.567Z,96567.63
2022-09-27T19:34:58.125Z,96569.47
2022-09-27T19:37:26.594Z,96569.28
2022-09-27T19:39:55.628Z,96558.28
2022-09-27T19:42:24.231Z,96556.06
2022-09-27T19:44:54.433Z,96560.47
2022-09-27T19:47:23.154Z,96555.03
2022-09-27T19:49:51.669Z,96554.88
2022-09-27T19:52:20.592Z,96543.41
2022-09-27T19:54:49.266Z,96543.22
2022-09-27T19:57:18.149Z,96552.47
2022-09-27T19:59:46.698Z,96545.25
2022-09-27T20:02:17.707Z,96544.81
2022-09-27T20:04:46.348Z,96541.63
2022-09-27T20:07:14.855Z,96539.50
2022-09-27T20:09:43.468Z,96546.06
2022-09-27T20:12:12.556Z,96530.44
2022-09-27T20:14:43.956Z,96527.03
2022-09-27T20:17:13.591Z,96526.88
2022-09-27T20:19:43.499Z,96518.69
2022-09-27T20:22:11.991Z,96505.25
2022-09-27T20:24:40.660Z,96498.78
2022-09-27T20:27:09.198Z,96498.00
2022-09-27T20:29:37.714Z,96501.03
2022-09-27T20:32:26.597Z,96495.81
2022-09-27T20:34:57.162Z,96485.63
2022-09-27T20:37:26.072Z,96494.44
2022-09-27T20:39:54.956Z,96488.38
2022-09-27T20:42:23.485Z,96492.38
2022-09-27T20:44:54.306Z,96487.75
2022-09-27T20:47:23.446Z,96472.31
2022-09-27T20:49:51.955Z,96477.13
2022-09-27T20:52:22.262Z,96475.88
2022-09-27T20:54:52.074Z,96464.22
2022-09-27T20:57:46.260Z,96460.19
2022-09-27T21:00:15.145Z,96466.56
2022-09-27T21:02:43.671Z,96460.34
2022-09-27T21:05:13.078Z,96452.91
2022-09-27T21:07:43.023Z,96458.88
2022-09-27T21:10:11.899Z,96453.66
2022-09-27T21:12:40.481Z,96452.22
2022-09-27T21:15:10.464Z,96447.59
2022-09-27T21:17:39.066Z,96447.19
2022-09-27T21:20:08.390Z,96436.31
2022-09-27T21:22:37.790Z,96435.66
2022-09-27T21:25:08.856Z,96430.22
2022-09-27T21:27:37.334Z,96428.78
2022-09-27T21:30:07.198Z,96427.53
2022-09-27T21:32:36.603Z,96428.34
2022-09-27T21:35:05.925Z,96414.66
2022-09-27T21:37:35.178Z,96412.41
2022-09-27T21:40:05.333Z,96401.53
2022-09-27T21:42:35.749Z,96395.88
2022-09-27T21:45:04.422Z,96392.25
2022-09-27T21:47:34.498Z,96376.16
2022-09-27T21:50:02.971Z,96372.53
2022-09-27T21:52:31.592Z,96369.47
2022-09-27T21:55:00.026Z,96374.25
2022-09-27T21:57:31.898Z,96376.41
2022-09-27T22:00:02.077Z,96383.59
2022-09-27T22:02:31.166Z,96382.34
2022-09-27T22:04:59.697Z,96366.25
2022-09-27T22:07:28.207Z,96369.41
2022-09-27T22:09:56.903Z,96364.78
2022-09-27T22:12:26.706Z,96371.38
2022-09-27T22:14:55.177Z,96364.13
2022-09-27T22:17:25.894Z,96357.66
2022-09-27T22:19:54.390Z,96359.81
2022-09-27T22:22:22.955Z,96357.22
2022-09-27T22:24:51.476Z,96348.94
2022-09-27T22:27:19.916Z,96350.53
2022-09-27T22:29:48.360Z,96344.31
2022-09-27T22:32:16.790Z,96342.25
2022-09-27T22:34:46.586Z,96341.78
2022-09-27T22:37:15.560Z,96337.13
2022-09-27T22:39:44.772Z,96323.66
2022-09-27T22:42:13.352Z,96319.44
2022-09-27T22:44:41.855Z,96323.22
2022-09-27T22:47:10.514Z,96325.56
2022-09-27T22:49:39.095Z,96330.59
2022-09-27T22:52:09.282Z,96319.13
2022-09-27T22:54:38.021Z,96309.25
2022-09-27T22:57:06.481Z,96312.66
2022-09-27T22:59:34.953Z,96310.59
2022-09-27T23:02:03.429Z,96306.19
2022-09-27T23:04:31.994Z,96301.41
2022-09-27T23:07:00.445Z,96299.34
2022-09-27T23:09:30.871Z,96281.66
2022-09-27T23:11:59.571Z,96282.69
2022-09-27T23:14:29.607Z,96280.06
2022-09-27T23:16:58.756Z,96268.47
2022-09-27T23:19:27.517Z,96279.72
2022-09-27T23:21:56.601Z,96265.66
2022-09-27T23:24:25.755Z,96260.19
2022-09-27T23:27:09.894Z,96257.56
2022-09-27T23:29:38.775Z,96259.63
2022-09-27T23:32:08.656Z,96260.19
2022-09-27T23:34:37.109Z,96252.34
2022-09-27T23:37:06.057Z,96252.34
2022-09-27T23:39:34.681Z,96257.22
2022-09-27T23:42:04.690Z,96248.38
2022-09-27T23:44:33.355Z,96239.53
2022-09-27T23:47:02.990Z,96243.97
2022-09-27T23:49:32.253Z,96242.94
2022-09-27T23:52:01.555Z,96244.75
2022-09-27T23:54:30.703Z,96240.34
2022-09-27T23:57:00.163Z,96239.09
2022-09-27T23:59:30.373Z,96236.47
